sensor_id;sensor_type;location;lat;lon;timestamp;pressure;altitude;pressure_sealevel;temperature;humidity
62978;BME280;49073;42.352;23.808;2023-02-16T00:02:21;95893.44;;;-2.89;81.13
62978;BME280;49073;42.352;23.808;2023-02-16T00:08:27;95890.34;;;-3.03;81.26
62978;BME280;49073;42.352;23.808;2023-02-16T00:11:32;95889.16;;;-2.96;81.26
62978;BME280;49073;42.352;23.808;2023-02-16T00:14:52;95882.94;;;-2.95;81.33
62978;BME280;49073;42.352;23.808;2023-02-16T00:17:54;95897.31;;;-2.92;81.60
62978;BME280;49073;42.352;23.808;2023-02-16T00:20:55;95893.78;;;-2.86;81.20
62978;BME280;49073;42.352;23.808;2023-02-16T00:23:55;95890.34;;;-2.86;81.03
62978;BME280;49073;42.352;23.808;2023-02-16T00:26:57;95876.00;;;-2.89;82.32
62978;BME280;49073;42.352;23.808;2023-02-16T00:29:58;95883.56;;;-2.87;81.40
62978;BME280;49073;42.352;23.808;2023-02-16T00:33:00;95876.84;;;-3.00;81.38
62978;BME280;49073;42.352;23.808;2023-02-16T00:36:00;95885.38;;;-3.05;81.49
62978;BME280;49073;42.352;23.808;2023-02-16T00:39:01;95886.00;;;-3.15;81.78
62978;BME280;49073;42.352;23.808;2023-02-16T00:42:09;95880.16;;;-3.05;82.33
62978;BME280;49073;42.352;23.808;2023-02-16T00:45:17;95870.91;;;-3.13;82.14
62978;BME280;49073;42.352;23.808;2023-02-16T00:48:22;95873.06;;;-2.93;83.57
62978;BME280;49073;42.352;23.808;2023-02-16T00:51:23;95877.47;;;-2.76;81.25
62978;BME280;49073;42.352;23.808;2023-02-16T00:54:23;95884.44;;;-2.82;81.07
62978;BME280;49073;42.352;23.808;2023-02-16T00:57:25;95874.63;;;-2.92;81.39
62978;BME280;49073;42.352;23.808;2023-02-16T01:00:35;95868.78;;;-2.99;80.45
62978;BME280;49073;42.352;23.808;2023-02-16T01:03:37;95869.41;;;-2.92;80.71
62978;BME280;49073;42.352;23.808;2023-02-16T01:06:37;95868.78;;;-2.99;80.30
62978;BME280;49073;42.352;23.808;2023-02-16T01:09:57;95875.72;;;-3.04;80.33
62978;BME280;49073;42.352;23.808;2023-02-16T01:13:16;95874.94;;;-3.05;80.77
62978;BME280;49073;42.352;23.808;2023-02-16T01:16:23;95866.66;;;-3.02;80.67
62978;BME280;49073;42.352;23.808;2023-02-16T01:19:25;95864.25;;;-3.03;80.91
62978;BME280;49073;42.352;23.808;2023-02-16T01:22:25;95870.50;;;-3.22;81.26
62978;BME280;49073;42.352;23.808;2023-02-16T01:25:26;95859.19;;;-3.27;81.22
62978;BME280;49073;42.352;23.808;2023-02-16T01:28:26;95864.88;;;-3.30;81.05
62978;BME280;49073;42.352;23.808;2023-02-16T01:31:27;95857.66;;;-3.40;81.56
62978;BME280;49073;42.352;23.808;2023-02-16T01:34:27;95865.56;;;-3.35;81.01
62978;BME280;49073;42.352;23.808;2023-02-16T01:37:28;95862.09;;;-3.41;80.84
62978;BME280;49073;42.352;23.808;2023-02-16T01:44:00;95846.28;;;-3.51;82.25
62978;BME280;49073;42.352;23.808;2023-02-16T01:50:18;95843.16;;;-3.19;82.93
62978;BME280;49073;42.352;23.808;2023-02-16T01:53:25;95846.84;;;-3.32;79.97
62978;BME280;49073;42.352;23.808;2023-02-16T02:00:02;95840.63;;;-3.48;80.72
62978;BME280;49073;42.352;23.808;2023-02-16T02:03:10;95845.81;;;-3.48;81.24
62978;BME280;49073;42.352;23.808;2023-02-16T02:06:33;95841.88;;;-3.51;81.48
62978;BME280;49073;42.352;23.808;2023-02-16T02:09:39;95842.66;;;-3.50;82.21
62978;BME280;49073;42.352;23.808;2023-02-16T02:12:50;95843.22;;;-3.48;81.97
62978;BME280;49073;42.352;23.808;2023-02-16T02:15:52;95840.75;;;-3.55;80.87
62978;BME280;49073;42.352;23.808;2023-02-16T02:18:53;95849.25;;;-3.59;81.47
62978;BME280;49073;42.352;23.808;2023-02-16T02:29:14;95844.50;;;-3.62;80.52
62978;BME280;49073;42.352;23.808;2023-02-16T02:41:56;95844.16;;;-3.83;81.61
62978;BME280;49073;42.352;23.808;2023-02-16T02:45:27;95840.00;;;-3.96;81.27
62978;BME280;49073;42.352;23.808;2023-02-16T02:48:31;95834.78;;;-3.96;81.74
62978;BME280;49073;42.352;23.808;2023-02-16T02:51:32;95842.19;;;-4.05;81.91
62978;BME280;49073;42.352;23.808;2023-02-16T02:54:36;95838.00;;;-4.06;82.24
62978;BME280;49073;42.352;23.808;2023-02-16T02:57:56;95845.56;;;-4.04;82.48
62978;BME280;49073;42.352;23.808;2023-02-16T03:01:17;95840.88;;;-3.90;83.30
62978;BME280;49073;42.352;23.808;2023-02-16T03:04:20;95835.13;;;-3.92;82.98
62978;BME280;49073;42.352;23.808;2023-02-16T03:07:24;95838.47;;;-3.80;81.82
62978;BME280;49073;42.352;23.808;2023-02-16T03:10:49;95832.72;;;-3.82;80.81
62978;BME280;49073;42.352;23.808;2023-02-16T03:14:15;95832.72;;;-3.82;80.72
62978;BME280;49073;42.352;23.808;2023-02-16T03:17:21;95824.25;;;-3.89;81.64
62978;BME280;49073;42.352;23.808;2023-02-16T03:20:44;95834.53;;;-3.83;81.93
62978;BME280;49073;42.352;23.808;2023-02-16T03:24:08;95831.16;;;-3.95;81.80
62978;BME280;49073;42.352;23.808;2023-02-16T03:27:35;95827.06;;;-3.91;81.53
62978;BME280;49073;42.352;23.808;2023-02-16T03:30:58;95833.75;;;-3.95;80.77
62978;BME280;49073;42.352;23.808;2023-02-16T03:34:01;95832.09;;;-4.01;81.38
62978;BME280;49073;42.352;23.808;2023-02-16T03:37:02;95826.56;;;-4.05;80.64
62978;BME280;49073;42.352;23.808;2023-02-16T03:40:07;95830.97;;;-4.05;81.24
62978;BME280;49073;42.352;23.808;2023-02-16T03:43:28;95832.91;;;-4.13;80.69
62978;BME280;49073;42.352;23.808;2023-02-16T03:46:29;95830.88;;;-4.22;81.20
62978;BME280;49073;42.352;23.808;2023-02-16T03:49:30;95828.28;;;-4.22;81.61
62978;BME280;49073;42.352;23.808;2023-02-16T03:52:31;95823.53;;;-4.26;81.83
62978;BME280;49073;42.352;23.808;2023-02-16T03:55:36;95831.22;;;-4.19;82.19
62978;BME280;49073;42.352;23.808;2023-02-16T03:58:37;95832.44;;;-4.10;81.99
62978;BME280;49073;42.352;23.808;2023-02-16T04:01:37;95827.44;;;-3.99;82.03
62978;BME280;49073;42.352;23.808;2023-02-16T04:04:38;95825.47;;;-3.92;81.33
62978;BME280;49073;42.352;23.808;2023-02-16T04:07:38;95830.75;;;-4.04;81.10
62978;BME280;49073;42.352;23.808;2023-02-16T04:10:39;95826.69;;;-4.12;80.41
62978;BME280;49073;42.352;23.808;2023-02-16T04:13:40;95819.59;;;-4.28;80.85
62978;BME280;49073;42.352;23.808;2023-02-16T04:16:40;95822.66;;;-4.31;81.78
62978;BME280;49073;42.352;23.808;2023-02-16T04:19:41;95820.75;;;-4.36;81.01
62978;BME280;49073;42.352;23.808;2023-02-16T04:22:43;95817.84;;;-4.51;81.42
62978;BME280;49073;42.352;23.808;2023-02-16T04:25:44;95821.56;;;-4.47;82.50
62978;BME280;49073;42.352;23.808;2023-02-16T04:28:45;95818.25;;;-4.43;82.31
62978;BME280;49073;42.352;23.808;2023-02-16T04:31:45;95821.91;;;-4.56;81.91
62978;BME280;49073;42.352;23.808;2023-02-16T04:34:46;95822.47;;;-4.65;82.53
62978;BME280;49073;42.352;23.808;2023-02-16T04:37:47;95822.25;;;-4.64;82.03
62978;BME280;49073;42.352;23.808;2023-02-16T04:40:47;95822.81;;;-4.62;82.43
62978;BME280;49073;42.352;23.808;2023-02-16T04:43:48;95827.66;;;-4.54;82.26
62978;BME280;49073;42.352;23.808;2023-02-16T04:46:48;95832.63;;;-4.52;82.08
62978;BME280;49073;42.352;23.808;2023-02-16T04:49:49;95834.91;;;-4.68;82.02
62978;BME280;49073;42.352;23.808;2023-02-16T04:52:49;95839.00;;;-4.60;81.33
62978;BME280;49073;42.352;23.808;2023-02-16T04:55:50;95837.97;;;-4.59;82.01
62978;BME280;49073;42.352;23.808;2023-02-16T04:58:50;95832.63;;;-4.52;82.38
62978;BME280;49073;42.352;23.808;2023-02-16T05:01:51;95833.78;;;-4.60;82.29
62978;BME280;49073;42.352;23.808;2023-02-16T05:04:52;95845.06;;;-4.54;82.03
62978;BME280;49073;42.352;23.808;2023-02-16T05:07:53;95841.81;;;-4.61;81.90
62978;BME280;49073;42.352;23.808;2023-02-16T05:10:53;95850.16;;;-4.59;81.54
62978;BME280;49073;42.352;23.808;2023-02-16T05:14:27;95849.28;;;-4.65;81.64
62978;BME280;49073;42.352;23.808;2023-02-16T05:17:44;95857.66;;;-4.63;82.02
62978;BME280;49073;42.352;23.808;2023-02-16T05:20:45;95853.56;;;-4.59;83.35
62978;BME280;49073;42.352;23.808;2023-02-16T05:24:09;95850.06;;;-4.53;81.77
62978;BME280;49073;42.352;23.808;2023-02-16T05:27:24;95846.09;;;-4.55;81.11
62978;BME280;49073;42.352;23.808;2023-02-16T05:30:25;95847.34;;;-4.58;81.20
62978;BME280;49073;42.352;23.808;2023-02-16T05:33:25;95857.19;;;-4.60;81.21
62978;BME280;49073;42.352;23.808;2023-02-16T05:36:26;95857.88;;;-4.53;81.35
62978;BME280;49073;42.352;23.808;2023-02-16T05:39:26;95857.06;;;-4.53;81.69
62978;BME280;49073;42.352;23.808;2023-02-16T05:42:27;95859.69;;;-4.65;82.63
62978;BME280;49073;42.352;23.808;2023-02-16T05:45:28;95869.50;;;-4.55;83.68
62978;BME280;49073;42.352;23.808;2023-02-16T05:48:28;95875.63;;;-4.49;83.41
62978;BME280;49073;42.352;23.808;2023-02-16T05:51:29;95867.69;;;-4.43;83.88
62978;BME280;49073;42.352;23.808;2023-02-16T05:54:29;95875.28;;;-4.29;84.29
62978;BME280;49073;42.352;23.808;2023-02-16T05:57:30;95870.72;;;-4.22;85.17
62978;BME280;49073;42.352;23.808;2023-02-16T06:00:33;95866.84;;;-3.96;85.87
62978;BME280;49073;42.352;23.808;2023-02-16T06:03:36;95877.66;;;-3.87;85.93
62978;BME280;49073;42.352;23.808;2023-02-16T06:06:37;95869.81;;;-3.75;85.42
62978;BME280;49073;42.352;23.808;2023-02-16T06:09:38;95867.00;;;-3.73;86.53
62978;BME280;49073;42.352;23.808;2023-02-16T06:12:38;95873.31;;;-3.40;86.57
62978;BME280;49073;42.352;23.808;2023-02-16T06:15:39;95873.25;;;-3.28;87.03
62978;BME280;49073;42.352;23.808;2023-02-16T06:18:40;95871.88;;;-3.02;89.02
62978;BME280;49073;42.352;23.808;2023-02-16T06:21:40;95874.38;;;-2.73;89.96
62978;BME280;49073;42.352;23.808;2023-02-16T06:24:42;95886.41;;;-2.55;90.13
62978;BME280;49073;42.352;23.808;2023-02-16T06:27:43;95877.75;;;-2.38;90.38
62978;BME280;49073;42.352;23.808;2023-02-16T06:30:44;95880.25;;;-2.26;91.12
62978;BME280;49073;42.352;23.808;2023-02-16T06:33:44;95882.22;;;-2.16;91.49
62978;BME280;49073;42.352;23.808;2023-02-16T06:36:45;95882.97;;;-1.99;91.08
62978;BME280;49073;42.352;23.808;2023-02-16T06:39:45;95881.50;;;-1.90;90.90
62978;BME280;49073;42.352;23.808;2023-02-16T06:42:46;95874.91;;;-1.75;89.55
62978;BME280;49073;42.352;23.808;2023-02-16T06:45:47;95881.91;;;-1.53;90.97
62978;BME280;49073;42.352;23.808;2023-02-16T06:48:47;95879.03;;;-1.52;91.78
62978;BME280;49073;42.352;23.808;2023-02-16T06:51:48;95874.91;;;-1.48;91.79
62978;BME280;49073;42.352;23.808;2023-02-16T06:54:49;95885.06;;;-1.51;91.96
62978;BME280;49073;42.352;23.808;2023-02-16T06:57:50;95883.38;;;-1.40;91.33
62978;BME280;49073;42.352;23.808;2023-02-16T07:00:53;95887.28;;;-1.38;91.00
62978;BME280;49073;42.352;23.808;2023-02-16T07:03:55;95894.75;;;-1.24;91.10
62978;BME280;49073;42.352;23.808;2023-02-16T07:06:56;95899.97;;;-0.97;90.61
62978;BME280;49073;42.352;23.808;2023-02-16T07:09:56;95896.19;;;-0.79;90.44
62978;BME280;49073;42.352;23.808;2023-02-16T07:12:57;95899.97;;;-0.64;90.07
62978;BME280;49073;42.352;23.808;2023-02-16T07:15:57;95893.28;;;-0.50;90.42
62978;BME280;49073;42.352;23.808;2023-02-16T07:18:58;95892.06;;;-0.32;90.10
62978;BME280;49073;42.352;23.808;2023-02-16T07:22:00;95892.94;;;-0.16;89.37
62978;BME280;49073;42.352;23.808;2023-02-16T07:25:00;95888.81;;;-0.01;88.95
62978;BME280;49073;42.352;23.808;2023-02-16T07:28:01;95892.84;;;0.17;88.45
62978;BME280;49073;42.352;23.808;2023-02-16T07:31:08;95896.50;;;0.16;88.05
62978;BME280;49073;42.352;23.808;2023-02-16T07:34:09;95890.03;;;0.34;87.28
62978;BME280;49073;42.352;23.808;2023-02-16T07:37:10;95890.06;;;0.45;88.29
62978;BME280;49073;42.352;23.808;2023-02-16T07:40:11;95891.19;;;0.64;88.76
62978;BME280;49073;42.352;23.808;2023-02-16T07:43:12;95882.28;;;0.76;86.75
62978;BME280;49073;42.352;23.808;2023-02-16T07:46:12;95879.94;;;1.00;86.41
62978;BME280;49073;42.352;23.808;2023-02-16T07:49:12;95880.19;;;1.09;84.82
62978;BME280;49073;42.352;23.808;2023-02-16T07:52:13;95877.56;;;1.14;85.07
62978;BME280;49073;42.352;23.808;2023-02-16T07:55:13;95876.53;;;1.30;84.56
62978;BME280;49073;42.352;23.808;2023-02-16T07:58:14;95878.63;;;1.39;83.84
62978;BME280;49073;42.352;23.808;2023-02-16T08:01:28;95872.81;;;1.68;82.61
62978;BME280;49073;42.352;23.808;2023-02-16T08:04:29;95872.25;;;1.92;82.59
62978;BME280;49073;42.352;23.808;2023-02-16T08:07:30;95878.56;;;1.85;82.18
62978;BME280;49073;42.352;23.808;2023-02-16T08:10:30;95868.53;;;1.98;80.85
62978;BME280;49073;42.352;23.808;2023-02-16T08:13:31;95866.59;;;2.29;80.14
62978;BME280;49073;42.352;23.808;2023-02-16T08:16:31;95864.22;;;2.28;77.86
62978;BME280;49073;42.352;23.808;2023-02-16T08:19:32;95869.69;;;2.42;77.24
62978;BME280;49073;42.352;23.808;2023-02-16T08:22:34;95867.75;;;2.58;76.18
62978;BME280;49073;42.352;23.808;2023-02-16T08:25:36;95873.25;;;2.61;75.39
62978;BME280;49073;42.352;23.808;2023-02-16T08:28:37;95877.34;;;2.83;75.13
62978;BME280;49073;42.352;23.808;2023-02-16T08:31:38;95867.13;;;2.76;72.62
62978;BME280;49073;42.352;23.808;2023-02-16T08:34:39;95863.03;;;3.00;73.76
62978;BME280;49073;42.352;23.808;2023-02-16T08:37:40;95865.19;;;3.27;70.98
62978;BME280;49073;42.352;23.808;2023-02-16T08:40:46;95863.63;;;3.56;70.99
62978;BME280;49073;42.352;23.808;2023-02-16T08:43:48;95860.38;;;3.64;69.09
62978;BME280;49073;42.352;23.808;2023-02-16T08:46:51;95859.63;;;3.88;69.57
62978;BME280;49073;42.352;23.808;2023-02-16T08:49:52;95876.66;;;4.20;68.65
62978;BME280;49073;42.352;23.808;2023-02-16T08:52:53;95865.63;;;4.18;64.89
62978;BME280;49073;42.352;23.808;2023-02-16T08:55:54;95866.84;;;4.26;65.42
62978;BME280;49073;42.352;23.808;2023-02-16T08:58:56;95863.59;;;4.53;64.98
62978;BME280;49073;42.352;23.808;2023-02-16T09:01:57;95864.06;;;4.79;64.61
62978;BME280;49073;42.352;23.808;2023-02-16T09:04:58;95864.97;;;4.89;63.89
62978;BME280;49073;42.352;23.808;2023-02-16T09:07:59;95867.53;;;4.94;62.85
62978;BME280;49073;42.352;23.808;2023-02-16T09:11:04;95858.59;;;5.09;62.95
62978;BME280;49073;42.352;23.808;2023-02-16T09:14:05;95863.81;;;5.14;62.93
62978;BME280;49073;42.352;23.808;2023-02-16T09:17:06;95860.06;;;5.34;61.38
62978;BME280;49073;42.352;23.808;2023-02-16T09:20:07;95859.31;;;5.48;62.21
62978;BME280;49073;42.352;23.808;2023-02-16T09:23:09;95858.22;;;5.49;60.63
62978;BME280;49073;42.352;23.808;2023-02-16T09:26:11;95854.44;;;5.83;61.79
62978;BME280;49073;42.352;23.808;2023-02-16T09:29:13;95850.72;;;5.98;59.40
62978;BME280;49073;42.352;23.808;2023-02-16T09:32:14;95843.50;;;6.18;59.27
62978;BME280;49073;42.352;23.808;2023-02-16T09:35:14;95846.44;;;6.30;58.50
62978;BME280;49073;42.352;23.808;2023-02-16T09:38:15;95851.19;;;6.70;56.90
62978;BME280;49073;42.352;23.808;2023-02-16T09:44:39;95836.31;;;7.28;54.46
62978;BME280;49073;42.352;23.808;2023-02-16T09:47:43;95834.06;;;7.45;54.15
62978;BME280;49073;42.352;23.808;2023-02-16T09:50:45;95826.44;;;7.75;53.13
62978;BME280;49073;42.352;23.808;2023-02-16T09:53:54;95826.59;;;7.78;52.61
62978;BME280;49073;42.352;23.808;2023-02-16T09:57:03;95820.38;;;7.92;52.09
62978;BME280;49073;42.352;23.808;2023-02-16T10:00:20;95822.56;;;7.90;52.38
62978;BME280;49073;42.352;23.808;2023-02-16T10:03:39;95818.50;;;7.83;51.91
62978;BME280;49073;42.352;23.808;2023-02-16T10:09:48;95818.44;;;8.15;52.10
62978;BME280;49073;42.352;23.808;2023-02-16T10:12:56;95815.38;;;8.39;50.16
62978;BME280;49073;42.352;23.808;2023-02-16T10:15:59;95807.72;;;8.47;49.69
62978;BME280;49073;42.352;23.808;2023-02-16T10:19:03;95796.00;;;8.39;50.25
62978;BME280;49073;42.352;23.808;2023-02-16T10:22:16;95787.44;;;8.59;48.91
62978;BME280;49073;42.352;23.808;2023-02-16T10:26:20;95796.19;;;8.69;48.01
62978;BME280;49073;42.352;23.808;2023-02-16T10:28:57;95793.84;;;8.94;47.41
62978;BME280;49073;42.352;23.808;2023-02-16T10:32:20;95786.94;;;9.10;47.71
62978;BME280;49073;42.352;23.808;2023-02-16T10:35:51;95778.56;;;9.47;47.22
62978;BME280;49073;42.352;23.808;2023-02-16T10:43:03;95774.69;;;9.27;46.61
62978;BME280;49073;42.352;23.808;2023-02-16T10:46:17;95768.16;;;9.15;45.71
62978;BME280;49073;42.352;23.808;2023-02-16T10:49:19;95774.88;;;9.13;45.11
62978;BME280;49073;42.352;23.808;2023-02-16T10:52:21;95760.28;;;9.45;45.52
62978;BME280;49073;42.352;23.808;2023-02-16T10:55:22;95760.72;;;9.48;45.46
62978;BME280;49073;42.352;23.808;2023-02-16T10:58:38;95750.59;;;9.71;44.11
62978;BME280;49073;42.352;23.808;2023-02-16T11:01:47;95751.03;;;9.82;43.55
62978;BME280;49073;42.352;23.808;2023-02-16T11:04:51;95753.38;;;9.83;43.61
62978;BME280;49073;42.352;23.808;2023-02-16T11:07:54;95747.53;;;10.20;43.98
62978;BME280;49073;42.352;23.808;2023-02-16T11:10:56;95737.13;;;10.27;42.48
62978;BME280;49073;42.352;23.808;2023-02-16T11:14:05;95748.09;;;10.26;42.71
62978;BME280;49073;42.352;23.808;2023-02-16T11:17:11;95737.03;;;10.45;42.88
62978;BME280;49073;42.352;23.808;2023-02-16T11:23:40;95735.59;;;10.47;42.14
62978;BME280;49073;42.352;23.808;2023-02-16T11:26:42;95732.13;;;10.68;41.65
62978;BME280;49073;42.352;23.808;2023-02-16T11:29:42;95727.19;;;10.58;41.37
62978;BME280;49073;42.352;23.808;2023-02-16T11:32:43;95726.03;;;10.68;40.86
62978;BME280;49073;42.352;23.808;2023-02-16T11:35:44;95716.38;;;10.75;40.70
62978;BME280;49073;42.352;23.808;2023-02-16T11:38:58;95709.41;;;10.83;40.73
62978;BME280;49073;42.352;23.808;2023-02-16T11:42:05;95712.47;;;11.06;40.82
62978;BME280;49073;42.352;23.808;2023-02-16T11:45:07;95714.38;;;11.18;40.59
62978;BME280;49073;42.352;23.808;2023-02-16T11:48:13;95708.09;;;11.60;39.88
62978;BME280;49073;42.352;23.808;2023-02-16T11:51:33;95704.63;;;11.85;39.77
62978;BME280;49073;42.352;23.808;2023-02-16T11:54:35;95700.50;;;11.87;39.94
62978;BME280;49073;42.352;23.808;2023-02-16T11:57:35;95692.06;;;11.85;39.57
62978;BME280;49073;42.352;23.808;2023-02-16T12:00:36;95690.03;;;11.94;38.36
62978;BME280;49073;42.352;23.808;2023-02-16T12:31:14;95657.16;;;12.19;37.91
62978;BME280;49073;42.352;23.808;2023-02-16T12:38:12;95643.72;;;12.44;37.57
62978;BME280;49073;42.352;23.808;2023-02-16T12:44:42;95639.44;;;12.55;37.33
62978;BME280;49073;42.352;23.808;2023-02-16T12:47:53;95635.97;;;12.39;37.08
62978;BME280;49073;42.352;23.808;2023-02-16T12:50:57;95638.22;;;12.52;37.32
62978;BME280;49073;42.352;23.808;2023-02-16T12:54:15;95635.16;;;12.10;36.89
62978;BME280;49073;42.352;23.808;2023-02-16T12:57:19;95631.56;;;12.18;37.29
62978;BME280;49073;42.352;23.808;2023-02-16T13:00:24;95621.75;;;12.22;38.17
62978;BME280;49073;42.352;23.808;2023-02-16T13:07:13;95624.16;;;12.56;37.98
62978;BME280;49073;42.352;23.808;2023-02-16T13:10:22;95630.19;;;12.52;36.29
62978;BME280;49073;42.352;23.808;2023-02-16T13:13:31;95615.44;;;12.43;37.66
62978;BME280;49073;42.352;23.808;2023-02-16T13:16:46;95617.38;;;12.30;37.68
62978;BME280;49073;42.352;23.808;2023-02-16T13:19:48;95620.69;;;11.98;37.99
62978;BME280;49073;42.352;23.808;2023-02-16T13:23:19;95613.22;;;12.16;38.17
62978;BME280;49073;42.352;23.808;2023-02-16T13:36:13;95600.66;;;12.04;37.18
62978;BME280;49073;42.352;23.808;2023-02-16T13:46:22;95606.41;;;11.66;38.80
62978;BME280;49073;42.352;23.808;2023-02-16T13:49:38;95598.78;;;11.39;39.01
62978;BME280;49073;42.352;23.808;2023-02-16T13:52:42;95599.69;;;11.31;39.50
62978;BME280;49073;42.352;23.808;2023-02-16T13:55:43;95603.44;;;11.42;39.57
62978;BME280;49073;42.352;23.808;2023-02-16T13:58:44;95603.44;;;11.42;39.29
62978;BME280;49073;42.352;23.808;2023-02-16T14:01:46;95598.56;;;11.32;39.23
62978;BME280;49073;42.352;23.808;2023-02-16T14:08:23;95603.78;;;10.91;40.05
62978;BME280;49073;42.352;23.808;2023-02-16T14:11:24;95604.31;;;10.84;40.30
62978;BME280;49073;42.352;23.808;2023-02-16T14:14:44;95596.25;;;10.59;40.71
62978;BME280;49073;42.352;23.808;2023-02-16T14:17:45;95599.81;;;10.51;40.70
62978;BME280;49073;42.352;23.808;2023-02-16T14:20:59;95595.13;;;10.48;40.66
62978;BME280;49073;42.352;23.808;2023-02-16T14:24:01;95600.91;;;10.50;40.89
62978;BME280;49073;42.352;23.808;2023-02-16T14:27:10;95601.50;;;10.34;41.06
62978;BME280;49073;42.352;23.808;2023-02-16T14:30:54;95602.81;;;10.28;41.58
62978;BME280;49073;42.352;23.808;2023-02-16T14:40:19;95597.28;;;10.00;42.05
62978;BME280;49073;42.352;23.808;2023-02-16T14:57:10;95602.06;;;9.43;43.65
62978;BME280;49073;42.352;23.808;2023-02-16T15:00:42;95602.53;;;9.36;43.87
62978;BME280;49073;42.352;23.808;2023-02-16T15:03:47;95601.09;;;9.17;44.11
62978;BME280;49073;42.352;23.808;2023-02-16T15:06:49;95602.03;;;9.13;44.58
62978;BME280;49073;42.352;23.808;2023-02-16T15:09:54;95598.53;;;9.00;44.59
62978;BME280;49073;42.352;23.808;2023-02-16T15:12:57;95603.88;;;8.82;45.26
62978;BME280;49073;42.352;23.808;2023-02-16T15:15:59;95603.78;;;8.70;45.06
62978;BME280;49073;42.352;23.808;2023-02-16T15:19:08;95602.38;;;8.64;45.14
62978;BME280;49073;42.352;23.808;2023-02-16T15:22:23;95605.03;;;8.64;45.59
62978;BME280;49073;42.352;23.808;2023-02-16T15:25:32;95602.72;;;8.44;45.90
62978;BME280;49073;42.352;23.808;2023-02-16T15:28:37;95612.56;;;8.44;46.06
62978;BME280;49073;42.352;23.808;2023-02-16T15:31:39;95612.75;;;8.39;46.39
62978;BME280;49073;42.352;23.808;2023-02-16T15:34:39;95614.31;;;8.40;46.59
62978;BME280;49073;42.352;23.808;2023-02-16T15:37:40;95609.78;;;8.32;46.50
62978;BME280;49073;42.352;23.808;2023-02-16T15:40:41;95604.78;;;8.21;46.94
62978;BME280;49073;42.352;23.808;2023-02-16T15:46:42;95611.38;;;8.06;47.47
62978;BME280;49073;42.352;23.808;2023-02-16T15:49:43;95612.28;;;7.93;47.73
62978;BME280;49073;42.352;23.808;2023-02-16T15:52:44;95607.13;;;7.70;47.77
62978;BME280;49073;42.352;23.808;2023-02-16T15:55:45;95623.88;;;7.12;48.57
62978;BME280;49073;42.352;23.808;2023-02-16T15:58:46;95616.78;;;6.90;49.19
62978;BME280;49073;42.352;23.808;2023-02-16T16:01:47;95620.19;;;6.50;49.92
62978;BME280;49073;42.352;23.808;2023-02-16T16:04:57;95625.91;;;6.21;50.80
62978;BME280;49073;42.352;23.808;2023-02-16T16:07:59;95629.25;;;6.13;51.23
62978;BME280;49073;42.352;23.808;2023-02-16T16:11:00;95627.91;;;5.50;51.91
62978;BME280;49073;42.352;23.808;2023-02-16T16:14:02;95628.72;;;5.23;53.52
62978;BME280;49073;42.352;23.808;2023-02-16T16:17:05;95634.50;;;4.97;53.98
62978;BME280;49073;42.352;23.808;2023-02-16T16:20:28;95639.56;;;4.65;54.93
62978;BME280;49073;42.352;23.808;2023-02-16T16:23:30;95636.06;;;4.37;55.90
62978;BME280;49073;42.352;23.808;2023-02-16T16:26:50;95643.94;;;4.23;57.07
62978;BME280;49073;42.352;23.808;2023-02-16T16:30:23;95649.88;;;4.15;57.53
62978;BME280;49073;42.352;23.808;2023-02-16T16:34:03;95653.50;;;4.19;57.66
62978;BME280;49073;42.352;23.808;2023-02-16T16:37:05;95649.88;;;4.15;58.00
62978;BME280;49073;42.352;23.808;2023-02-16T16:43:18;95656.00;;;3.72;59.03
62978;BME280;49073;42.352;23.808;2023-02-16T16:46:26;95667.53;;;3.57;58.83
62978;BME280;49073;42.352;23.808;2023-02-16T16:49:28;95661.09;;;3.44;59.25
62978;BME280;49073;42.352;23.808;2023-02-16T16:52:48;95663.28;;;3.37;60.37
62978;BME280;49073;42.352;23.808;2023-02-16T16:55:49;95660.88;;;3.40;60.40
62978;BME280;49073;42.352;23.808;2023-02-16T16:58:51;95667.78;;;3.36;59.92
62978;BME280;49073;42.352;23.808;2023-02-16T17:01:51;95667.94;;;3.20;60.76
62978;BME280;49073;42.352;23.808;2023-02-16T17:04:52;95669.38;;;3.13;60.99
62978;BME280;49073;42.352;23.808;2023-02-16T17:07:53;95674.66;;;2.83;62.11
62978;BME280;49073;42.352;23.808;2023-02-16T17:10:54;95669.56;;;2.68;62.33
62978;BME280;49073;42.352;23.808;2023-02-16T17:13:56;95673.91;;;2.13;64.90
62978;BME280;49073;42.352;23.808;2023-02-16T17:16:57;95676.78;;;2.17;67.08
62978;BME280;49073;42.352;23.808;2023-02-16T17:19:58;95672.50;;;2.26;65.37
62978;BME280;49073;42.352;23.808;2023-02-16T17:22:59;95672.03;;;2.19;65.08
62978;BME280;49073;42.352;23.808;2023-02-16T17:26:03;95674.13;;;2.22;65.52
62978;BME280;49073;42.352;23.808;2023-02-16T17:29:05;95677.19;;;2.35;64.73
62978;BME280;49073;42.352;23.808;2023-02-16T17:32:06;95671.16;;;2.29;65.06
62978;BME280;49073;42.352;23.808;2023-02-16T17:35:07;95669.13;;;2.21;64.84
62978;BME280;49073;42.352;23.808;2023-02-16T17:38:09;95670.00;;;2.11;64.96
62978;BME280;49073;42.352;23.808;2023-02-16T17:41:21;95663.28;;;1.89;65.37
62978;BME280;49073;42.352;23.808;2023-02-16T17:44:22;95666.00;;;1.73;65.75
62978;BME280;49073;42.352;23.808;2023-02-16T17:47:23;95670.63;;;1.42;67.80
62978;BME280;49073;42.352;23.808;2023-02-16T17:50:23;95676.31;;;1.59;67.27
62978;BME280;49073;42.352;23.808;2023-02-16T17:53:26;95676.34;;;1.54;67.63
62978;BME280;49073;42.352;23.808;2023-02-16T17:56:27;95668.84;;;1.27;68.26
62978;BME280;49073;42.352;23.808;2023-02-16T17:59:27;95672.75;;;1.35;68.60
62978;BME280;49073;42.352;23.808;2023-02-16T18:02:30;95668.06;;;1.16;68.51
62978;BME280;49073;42.352;23.808;2023-02-16T18:05:31;95676.25;;;1.14;68.70
62978;BME280;49073;42.352;23.808;2023-02-16T18:08:32;95668.38;;;1.14;68.65
62978;BME280;49073;42.352;23.808;2023-02-16T18:11:33;95668.63;;;1.18;68.30
62978;BME280;49073;42.352;23.808;2023-02-16T18:14:33;95668.06;;;1.16;68.08
62978;BME280;49073;42.352;23.808;2023-02-16T18:17:35;95668.09;;;1.21;68.09
62978;BME280;49073;42.352;23.808;2023-02-16T18:20:35;95674.13;;;1.16;69.95
62978;BME280;49073;42.352;23.808;2023-02-16T18:23:37;95679.91;;;1.13;68.82